Time;durP1;ratioP1;P1;durP2;ratioP2;P2;SDS_P1;SDS_P2;PMS_P1;PMS_P2;Temp;Humidity;BMP_temperature;BMP_pressure;BME280_temperature;BME280_humidity;BME280_pressure;Samples;Min_cycle;Max_cycle;Signal;HPM_P1;HPM_P2
2023/10/11 00:02:09;;;;;;;2.53;2.33;;;;;;;17.90;54.20;100286.13;5071297;28;20248;-70
2023/10/11 00:04:37;;;;;;;3.17;2.17;;;;;;;17.88;53.97;100272.09;5071863;28;20200;-74
2023/10/11 00:07:04;;;;;;;5.60;2.43;;;;;;;17.71;54.19;100276.41;5079670;28;20195;-71
2023/10/11 00:09:35;;;;;;;2.93;2.27;;;;;;;17.75;54.03;100277.59;5091948;28;20194;-74
2023/10/11 00:12:04;;;;;;;4.20;1.80;;;;;;;17.76;53.95;100284.66;5091653;28;20655;-74
2023/10/11 00:14:31;;;;;;;2.10;1.90;;;;;;;17.43;53.95;100281.47;5091821;28;20202;-72
2023/10/11 00:16:58;;;;;;;3.80;2.10;;;;;;;17.24;54.63;100287.78;5091903;28;20225;-71
2023/10/11 00:19:29;;;;;;;2.27;1.80;;;;;;;17.31;55.00;100280.50;5089988;28;20624;-74
2023/10/11 00:21:56;;;;;;;4.63;2.07;;;;;;;17.16;54.92;100288.91;5071733;28;20191;-75
2023/10/11 00:24:23;;;;;;;2.50;1.83;;;;;;;17.27;55.29;100279.31;5071523;28;20198;-75
2023/10/11 00:26:50;;;;;;;4.73;1.80;;;;;;;17.30;55.35;100279.69;5071237;28;20222;-71
2023/10/11 00:29:17;;;;;;;2.20;1.73;;;;;;;17.34;55.11;100280.03;5067771;28;20195;-74
2023/10/11 00:31:45;;;;;;;2.47;1.87;;;;;;;17.11;55.27;100271.78;5067532;28;20190;-71
2023/10/11 00:34:12;;;;;;;5.67;1.67;;;;;;;17.22;55.42;100279.94;5067522;28;20283;-71
2023/10/11 00:36:42;;;;;;;3.50;2.00;;;;;;;17.29;54.92;100285.25;5068439;28;20277;-74
2023/10/11 00:39:16;;;;;;;4.50;1.97;;;;;;;17.32;54.95;100292.88;5071610;28;20192;-73
2023/10/11 00:41:43;;;;;;;2.13;1.83;;;;;;;17.36;54.69;100284.16;5091842;28;20180;-74
2023/10/11 00:44:09;;;;;;;1.77;1.67;;;;;;;17.40;54.92;100281.88;5073969;28;20195;-74
2023/10/11 00:46:44;;;;;;;3.03;1.60;;;;;;;17.38;54.25;100283.94;5071391;28;20341;-74
2023/10/11 00:49:12;;;;;;;2.10;1.90;;;;;;;17.04;55.35;100287.13;5071316;28;20597;-74
2023/10/11 00:51:43;;;;;;;3.63;1.53;;;;;;;17.18;54.95;100292.16;5071043;28;20193;-73
2023/10/11 00:54:13;;;;;;;3.90;1.90;;;;;;;17.33;54.61;100297.22;5071148;28;20195;-76
2023/10/11 00:56:43;;;;;;;2.67;1.87;;;;;;;17.23;53.65;100300.38;5072840;28;20211;-74
2023/10/11 00:59:14;;;;;;;2.73;1.60;;;;;;;17.19;54.18;100301.88;5075320;28;20192;-74
2023/10/11 01:01:42;;;;;;;3.37;1.77;;;;;;;17.30;53.54;100308.38;5074704;28;20684;-75
2023/10/11 01:04:10;;;;;;;2.87;2.00;;;;;;;17.07;54.53;100308.16;5074743;28;20199;-76
2023/10/11 01:06:37;;;;;;;4.87;2.00;;;;;;;17.25;54.89;100313.59;5074765;28;20675;-76
2023/10/11 01:09:14;;;;;;;1.70;1.60;;;;;;;17.38;53.96;100313.47;5074420;28;20196;-74
2023/10/11 01:11:41;;;;;;;2.60;2.07;;;;;;;17.47;53.32;100313.03;5074719;28;20667;-74
2023/10/11 01:14:11;;;;;;;3.10;2.00;;;;;;;17.48;52.72;100313.84;5074787;28;20200;-75
2023/10/11 01:16:38;;;;;;;3.20;2.00;;;;;;;17.59;52.58;100326.53;5074476;28;20797;-75
2023/10/11 01:19:08;;;;;;;2.07;1.87;;;;;;;17.67;53.05;100326.25;5074512;28;20347;-73
2023/10/11 01:21:36;;;;;;;3.67;1.60;;;;;;;17.77;51.76;100334.66;5094330;28;20550;-72
2023/10/11 01:24:03;;;;;;;2.80;1.67;;;;;;;17.88;51.96;100337.44;5094912;28;20195;-72
2023/10/11 01:26:30;;;;;;;3.30;2.03;;;;;;;17.95;50.96;100334.66;5094646;28;20728;-72
2023/10/11 01:28:57;;;;;;;2.87;1.80;;;;;;;17.96;50.31;100341.69;5094819;28;20191;-71
2023/10/11 01:31:24;;;;;;;4.10;1.63;;;;;;;17.83;50.82;100355.25;5094844;28;20294;-72
2023/10/11 01:33:52;;;;;;;4.60;1.83;;;;;;;17.82;50.85;100357.16;5094756;28;20191;-72
2023/10/11 01:36:21;;;;;;;3.10;1.60;;;;;;;17.89;50.76;100344.44;5094807;28;20219;-73
2023/10/11 01:38:49;;;;;;;2.03;1.77;;;;;;;17.96;50.91;100353.25;5094254;28;20195;-74
2023/10/11 01:41:19;;;;;;;6.13;1.90;;;;;;;17.96;51.07;100355.13;5094681;28;20195;-75
2023/10/11 01:43:47;;;;;;;1.60;1.50;;;;;;;17.99;50.71;100349.31;5094443;28;20261;-73
2023/10/11 01:46:16;;;;;;;2.90;2.10;;;;;;;17.98;50.82;100353.03;5094554;28;20196;-72
2023/10/11 01:48:43;;;;;;;3.50;1.87;;;;;;;17.86;50.29;100354.81;5094437;28;20191;-73
2023/10/11 01:51:10;;;;;;;5.80;2.00;;;;;;;17.89;50.71;100359.75;5094488;28;20187;-72
2023/10/11 01:53:37;;;;;;;3.70;1.90;;;;;;;17.69;50.21;100359.13;5094397;28;20200;-73
2023/10/11 01:56:05;;;;;;;1.87;1.77;;;;;;;17.69;50.38;100370.72;5094418;28;20241;-74
2023/10/11 01:58:37;;;;;;;4.03;1.77;;;;;;;17.55;50.54;100371.00;5094236;28;20252;-73
2023/10/11 02:01:05;;;;;;;2.47;1.53;;;;;;;17.60;51.77;100368.50;5093600;28;20193;-75
2023/10/11 02:03:32;;;;;;;2.27;1.97;;;;;;;17.71;51.04;100367.78;5094127;28;20199;-75
2023/10/11 02:06:02;;;;;;;2.13;1.50;;;;;;;17.54;50.05;100377.44;5093803;28;20298;-75
2023/10/11 02:08:30;;;;;;;2.67;1.60;;;;;;;17.45;50.36;100381.44;5093444;28;20192;-73
2023/10/11 02:10:56;;;;;;;2.27;2.17;;;;;;;17.50;50.44;100381.59;5094425;28;20195;-75
2023/10/11 02:13:25;;;;;;;4.77;2.03;;;;;;;17.59;49.85;100394.56;5094083;28;20249;-75
2023/10/11 02:15:51;;;;;;;7.30;1.50;;;;;;;17.53;50.31;100400.81;5093894;28;20252;-75
2023/10/11 02:18:18;;;;;;;6.60;1.40;;;;;;;17.56;50.13;100405.72;5093984;28;20195;-74
2023/10/11 02:20:45;;;;;;;3.23;1.57;;;;;;;17.67;50.16;100405.03;5080791;28;20663;-75
2023/10/11 02:23:12;;;;;;;3.87;1.83;;;;;;;17.72;49.61;100415.13;5073200;28;20283;-75
2023/10/11 02:25:40;;;;;;;6.30;1.70;;;;;;;17.71;49.16;100410.78;5073682;28;20709;-74
2023/10/11 02:28:09;;;;;;;5.27;1.87;;;;;;;17.56;49.93;100410.28;5073683;28;20569;-74
2023/10/11 02:30:38;;;;;;;2.17;1.77;;;;;;;17.52;49.61;100412.56;5073086;28;20188;-75
2023/10/11 02:33:11;;;;;;;2.97;1.53;;;;;;;17.43;49.59;100416.56;5073554;28;20230;-73
2023/10/11 02:35:51;;;;;;;3.10;1.40;;;;;;;17.48;49.42;100416.75;5073063;28;20717;-73
2023/10/11 02:38:22;;;;;;;5.50;2.07;;;;;;;17.54;49.19;100420.44;5073064;28;20242;-73
2023/10/11 02:40:55;;;;;;;3.53;2.10;;;;;;;17.46;49.12;100434.13;5072976;28;20599;-74
2023/10/11 02:43:23;;;;;;;7.43;1.70;;;;;;;17.22;50.16;100422.28;5073315;28;20198;-72
2023/10/11 02:45:51;;;;;;;2.03;1.80;;;;;;;17.29;50.06;100419.53;5073147;28;20194;-74
2023/10/11 02:48:19;;;;;;;3.67;1.43;;;;;;;17.31;49.51;100426.34;5072797;28;20201;-74
2023/10/11 02:50:46;;;;;;;5.50;1.70;;;;;;;17.32;49.42;100427.16;5072741;28;20218;-74
2023/10/11 02:53:21;;;;;;;1.70;1.60;;;;;;;17.16;49.97;100423.16;5073105;28;20230;-73
2023/10/11 02:55:54;;;;;;;10.70;1.90;;;;;;;16.92;50.12;100421.22;5072998;28;20215;-73
2023/10/11 02:58:21;;;;;;;2.20;1.73;;;;;;;16.99;50.72;100424.66;5072731;28;20199;-73
2023/10/11 03:00:48;;;;;;;2.83;1.63;;;;;;;16.92;51.06;100425.75;5072451;28;20219;-72
2023/10/11 03:03:16;;;;;;;1.97;1.80;;;;;;;16.75;51.54;100420.06;5072341;28;20281;-72
2023/10/11 03:05:43;;;;;;;5.70;1.93;;;;;;;16.52;51.76;100426.94;5072699;28;20196;-73
2023/10/11 03:08:17;;;;;;;4.20;1.80;;;;;;;16.61;51.18;100428.38;5072749;28;20200;-74
2023/10/11 03:10:52;;;;;;;10.20;1.30;;;;;;;16.45;51.44;100423.47;5072406;28;20612;-73
2023/10/11 03:13:24;;;;;;;4.37;1.73;;;;;;;16.58;51.25;100439.53;5072380;28;20184;-75
2023/10/11 03:15:54;;;;;;;6.43;3.10;;;;;;;16.71;50.72;100444.84;5072547;28;20188;-73
2023/10/11 03:18:25;;;;;;;3.57;3.20;;;;;;;16.74;51.22;100439.06;5072523;28;20218;-74
2023/10/11 03:20:58;;;;;;;2.60;1.60;;;;;;;16.67;50.97;100444.44;5084973;28;20194;-74
2023/10/11 03:23:28;;;;;;;3.37;1.47;;;;;;;16.61;51.95;100441.78;5092794;28;20589;-74
2023/10/11 03:25:56;;;;;;;1.77;1.60;;;;;;;16.58;50.58;100448.38;5092739;28;20252;-74
2023/10/11 03:28:27;;;;;;;2.83;1.67;;;;;;;16.63;51.15;100445.06;5092272;28;20252;-74
2023/10/11 03:30:54;;;;;;;4.83;1.67;;;;;;;16.87;51.12;100445.16;5092200;28;20217;-74
2023/10/11 03:33:23;;;;;;;2.37;2.07;;;;;;;16.96;50.29;100437.69;5092488;28;20236;-74
2023/10/11 03:35:50;;;;;;;2.03;1.60;;;;;;;17.01;50.07;100445.94;5092161;28;20297;-75
2023/10/11 03:38:21;;;;;;;1.90;1.80;;;;;;;17.08;49.93;100442.19;5091994;28;20702;-73
2023/10/11 03:41:10;;;;;;;2.63;1.70;;;;;;;17.17;49.93;100445.44;5092617;28;20278;-73
2023/10/11 03:43:40;;;;;;;1.77;1.60;;;;;;;17.20;49.75;100445.84;5092361;28;20244;-73
2023/10/11 03:46:09;;;;;;;9.80;2.10;;;;;;;17.30;48.89;100456.09;5092425;28;20278;-74
2023/10/11 03:48:44;;;;;;;4.70;1.70;;;;;;;17.35;48.88;100454.41;5092297;28;20234;-75
2023/10/11 03:51:11;;;;;;;3.60;1.87;;;;;;;17.39;47.93;100454.81;5092275;28;20186;-73
2023/10/11 03:53:39;;;;;;;1.90;1.80;;;;;;;17.23;48.30;100455.31;5091749;28;20673;-73
2023/10/11 03:56:06;;;;;;;6.37;1.93;;;;;;;17.30;48.71;100456.94;5091817;28;20280;-73
2023/10/11 03:58:37;;;;;;;4.73;1.63;;;;;;;17.32;47.98;100454.03;5091805;28;20631;-73
2023/10/11 04:01:12;;;;;;;4.67;1.80;;;;;;;17.46;48.23;100463.66;5091403;28;20197;-72
2023/10/11 04:03:41;;;;;;;2.07;1.70;;;;;;;17.41;47.57;100458.13;5091677;28;20197;-72
2023/10/11 04:06:14;;;;;;;5.07;1.80;;;;;;;17.36;47.99;100466.00;5091934;28;20199;-72
2023/10/11 04:08:43;;;;;;;3.57;1.70;;;;;;;17.18;47.65;100465.88;5091978;28;20188;-71
2023/10/11 04:11:17;;;;;;;1.87;1.60;;;;;;;16.97;48.45;100456.28;5091519;28;20224;-73
2023/10/11 04:13:46;;;;;;;6.83;1.50;;;;;;;17.02;48.71;100455.66;5092030;28;20195;-74
2023/10/11 04:16:14;;;;;;;2.40;1.37;;;;;;;16.85;49.10;100457.16;5091791;28;20195;-74
2023/10/11 04:18:43;;;;;;;3.17;2.07;;;;;;;16.79;49.14;100468.75;5091536;28;20229;-74
2023/10/11 04:21:26;;;;;;;3.53;1.63;;;;;;;16.75;49.49;100456.78;5075614;28;20220;-73
2023/10/11 04:23:55;;;;;;;3.20;1.50;;;;;;;16.87;49.44;100455.91;5071452;28;20630;-73
2023/10/11 04:26:33;;;;;;;5.93;2.03;;;;;;;17.06;49.52;100460.34;5071179;28;20188;-73
2023/10/11 04:29:06;;;;;;;5.30;1.90;;;;;;;17.19;49.11;100465.66;5071717;28;20636;-74
2023/10/11 04:31:54;;;;;;;7.13;2.00;;;;;;;17.25;48.48;100472.03;5072683;28;20188;-74
2023/10/11 04:34:24;;;;;;;8.47;1.93;;;;;;;17.41;49.12;100466.19;5075723;28;20269;-72
2023/10/11 04:36:55;;;;;;;3.77;2.17;;;;;;;17.51;48.32;100469.25;5075166;28;20306;-73
2023/10/11 04:39:28;;;;;;;3.47;1.60;;;;;;;17.46;47.76;100477.09;5075627;28;20626;-73
2023/10/11 04:41:57;;;;;;;4.60;1.97;;;;;;;17.53;47.69;100473.34;5075533;28;20224;-72
2023/10/11 04:44:30;;;;;;;4.20;2.10;;;;;;;17.64;47.64;100474.53;5075196;28;20195;-72
2023/10/11 04:46:58;;;;;;;4.40;1.60;;;;;;;17.73;46.96;100478.59;5075165;28;20692;-71
2023/10/11 04:49:30;;;;;;;4.00;1.97;;;;;;;17.79;46.69;100483.06;5075280;28;20228;-71
2023/10/11 04:51:57;;;;;;;3.37;1.70;;;;;;;18.00;50.96;100471.94;5075033;28;20271;-70
2023/10/11 04:54:35;;;;;;;4.23;1.80;;;;;;;18.22;46.59;100483.97;5075014;28;20221;-69
2023/10/11 04:57:07;;;;;;;3.50;1.90;;;;;;;18.61;46.88;100483.56;5075217;28;20232;-67
2023/10/11 04:59:37;;;;;;;5.60;2.07;;;;;;;18.93;45.44;100485.06;5074167;28;20224;-68
2023/10/11 05:02:11;;;;;;;6.33;2.03;;;;;;;19.24;45.52;100499.19;5074431;28;20241;-67
2023/10/11 05:04:44;;;;;;;12.50;2.50;;;;;;;19.57;43.52;100501.44;5087140;28;20209;-68
2023/10/11 05:07:13;;;;;;;9.00;2.20;;;;;;;19.71;41.67;100497.47;5094985;28;20241;-68
2023/10/11 05:09:41;;;;;;;9.33;2.10;;;;;;;19.83;41.09;100501.03;5074619;28;20205;-68
2023/10/11 05:12:10;;;;;;;5.63;1.80;;;;;;;19.89;41.06;100514.41;5088114;28;20242;-68
2023/10/11 05:14:41;;;;;;;9.87;2.10;;;;;;;19.98;40.71;100509.50;5094145;28;20653;-68
2023/10/11 05:17:31;;;;;;;7.45;2.88;;;;;;;20.17;40.18;100511.06;5093352;28;20462;-65
2023/10/11 05:20:22;;;;;;;5.43;2.07;;;;;;;20.44;41.80;100509.56;5087864;28;20593;-68
2023/10/11 05:22:49;;;;;;;7.33;2.03;;;;;;;20.69;41.63;100520.94;5074111;28;20188;-73
2023/10/11 05:25:39;;;;;;;5.53;2.60;;;;;;;20.85;41.36;100522.91;5073722;28;20230;-74
2023/10/11 05:28:08;;;;;;;7.07;2.20;;;;;;;21.03;41.35;100520.09;5076477;28;20639;-68
2023/10/11 05:30:35;;;;;;;11.30;2.13;;;;;;;21.23;39.72;100525.91;5082609;28;20203;-63
2023/10/11 05:33:30;;;;;;;4.93;2.27;;;;;;;21.28;37.63;100539.53;5084525;28;20196;-63
2023/10/11 05:36:16;;;;;;;4.57;1.90;;;;;;;21.20;37.16;100536.38;5082328;28;20272;-63
2023/10/11 05:52:39;;;;;;;2.00;1.80;;;;;;;20.30;38.99;100562.16;5073271;28;20178;-63
2023/10/11 05:55:07;;;;;;;4.57;2.60;;;;;;;20.06;39.52;100560.44;5075957;28;20192;-66
2023/10/11 05:57:33;;;;;;;10.37;2.37;;;;;;;19.76;40.73;100565.84;5086299;28;20325;-65
2023/10/11 06:00:09;;;;;;;5.90;2.10;;;;;;;19.72;41.19;100571.91;5089749;28;20972;-66
2023/10/11 06:02:38;;;;;;;6.23;2.23;;;;;;;19.84;40.91;100572.78;5073253;28;20791;-72
2023/10/11 06:05:10;;;;;;;9.83;2.40;;;;;;;19.87;41.58;100572.34;5079059;28;20749;-73
2023/10/11 06:07:38;;;;;;;9.67;2.17;;;;;;;19.96;40.85;100570.94;5093393;28;20222;-72
2023/10/11 06:10:08;;;;;;;5.47;2.37;;;;;;;20.02;40.66;100567.34;5093026;28;20199;-73
2023/10/11 06:12:35;;;;;;;5.10;2.07;;;;;;;19.96;39.82;100581.75;5088089;28;20764;-74
2023/10/11 06:15:06;;;;;;;9.17;2.20;;;;;;;19.90;40.91;100577.28;5084842;28;20280;-69
2023/10/11 06:17:41;;;;;;;5.13;2.17;;;;;;;20.01;40.98;100584.59;5089033;28;20207;-68
2023/10/11 06:20:23;;;;;;;8.27;2.00;;;;;;;20.11;39.06;100584.88;5073397;28;20670;-74
2023/10/11 06:22:51;;;;;;;6.07;2.20;;;;;;;20.11;38.90;100590.25;5075731;28;20187;-70
2023/10/11 06:25:23;;;;;;;2.40;1.80;;;;;;;19.94;39.32;100590.06;5084455;28;20191;-69
2023/10/11 06:28:09;;;;;;;5.80;1.60;;;;;;;19.99;39.93;100581.28;5084435;28;20187;-71
2023/10/11 06:30:36;;;;;;;3.90;2.00;;;;;;;20.14;39.95;100584.41;5093251;28;20195;-71
2023/10/11 06:33:06;;;;;;;4.63;1.87;;;;;;;20.44;39.19;100585.16;5092987;28;20249;-72
2023/10/11 06:35:43;;;;;;;3.53;2.10;;;;;;;20.89;38.73;100583.50;5080008;28;20188;-72
2023/10/11 06:38:12;;;;;;;7.10;1.87;;;;;;;21.35;37.15;100586.16;5093151;28;20686;-73
2023/10/11 06:40:47;;;;;;;5.53;1.97;;;;;;;21.53;37.38;100583.31;5092068;28;20196;-72
2023/10/11 06:43:14;;;;;;;6.33;2.13;;;;;;;21.70;36.34;100591.44;5091521;28;20262;-72
2023/10/11 06:45:41;;;;;;;11.33;2.70;;;;;;;21.79;36.70;100590.88;5092228;28;20244;-74
2023/10/11 06:48:08;;;;;;;5.43;2.03;;;;;;;21.66;36.30;100595.69;5091692;28;20207;-72
2023/10/11 06:50:36;;;;;;;5.40;3.77;;;;;;;21.56;35.97;100590.91;5088981;28;20195;-65
2023/10/11 06:53:06;;;;;;;4.83;2.80;;;;;;;21.25;37.93;100593.25;5077765;28;20215;-68
2023/10/11 06:55:35;;;;;;;7.63;2.10;;;;;;;21.38;37.18;100598.38;5081981;28;20262;-70
2023/10/11 06:58:09;;;;;;;3.50;2.23;;;;;;;21.44;36.97;100600.94;5082331;28;20265;-69
2023/10/11 07:00:38;;;;;;;5.87;2.07;;;;;;;21.39;36.74;100600.84;5082665;28;20679;-69
2023/10/11 07:03:06;;;;;;;7.37;3.07;;;;;;;21.31;37.42;100609.31;5083056;28;20215;-70
2023/10/11 07:05:41;;;;;;;11.50;2.43;;;;;;;21.30;37.10;100601.44;5082373;28;20788;-71
2023/10/11 07:08:08;;;;;;;6.37;2.30;;;;;;;21.23;37.38;100595.38;5081643;28;20230;-70
2023/10/11 07:10:40;;;;;;;3.47;2.50;;;;;;;21.19;37.20;100595.00;5083356;28;20196;-69
2023/10/11 07:13:07;;;;;;;8.90;2.47;;;;;;;21.13;37.75;100595.13;5081930;28;20560;-69
2023/10/11 07:15:40;;;;;;;5.70;2.83;;;;;;;21.00;37.59;100601.63;5075707;28;20209;-67
2023/10/11 07:18:10;;;;;;;2.53;2.33;;;;;;;20.99;37.74;100597.28;5083115;28;20219;-69
2023/10/11 07:20:58;;;;;;;5.80;2.90;;;;;;;20.89;38.30;100604.28;5082236;28;20191;-69
2023/10/11 07:23:35;;;;;;;3.23;2.40;;;;;;;20.87;38.32;100601.03;5082547;28;20307;-69
2023/10/11 07:26:23;;;;;;;8.87;2.40;;;;;;;20.91;39.35;100597.66;5083783;28;20203;-70
2023/10/11 07:28:51;;;;;;;5.50;1.97;;;;;;;20.93;39.29;100600.94;5084637;28;20188;-69
2023/10/11 07:31:18;;;;;;;5.67;2.70;;;;;;;21.10;39.21;100601.03;5081404;28;20214;-68
2023/10/11 07:33:49;;;;;;;10.13;2.40;;;;;;;21.19;38.23;100599.63;5081652;28;20234;-68
2023/10/11 07:36:18;;;;;;;3.43;2.10;;;;;;;21.28;37.80;100604.41;5082792;28;20234;-67
2023/10/11 07:38:47;;;;;;;9.93;2.50;;;;;;;21.35;38.00;100610.50;5081392;28;20313;-69
2023/10/11 07:41:21;;;;;;;8.53;2.47;;;;;;;21.31;37.67;100603.13;5080409;28;20238;-68
2023/10/11 07:43:48;;;;;;;6.57;2.10;;;;;;;21.35;37.61;100610.50;5081125;28;20646;-70
2023/10/11 07:46:15;;;;;;;9.83;2.23;;;;;;;21.46;37.90;100611.53;5080255;28;20184;-67
2023/10/11 07:48:42;;;;;;;4.07;2.10;;;;;;;21.48;37.22;100621.03;5081448;28;20248;-69
2023/10/11 07:51:12;;;;;;;6.73;2.50;;;;;;;21.62;36.89;100622.41;5082513;28;20192;-68
2023/10/11 07:53:41;;;;;;;3.40;2.13;;;;;;;21.66;37.57;100611.94;5080739;28;20261;-69
2023/10/11 07:56:39;;;;;;;6.00;2.03;;;;;;;21.69;38.23;100612.28;5080656;28;20248;-69
2023/10/11 08:02:08;;;;;;;12.17;2.83;;;;;;;21.79;37.66;100622.50;5081407;28;20223;-70
2023/10/11 08:07:46;;;;;;;9.30;2.30;;;;;;;21.78;37.46;100618.16;5081373;28;21648;-69
2023/10/11 08:13:26;;;;;;;14.50;2.87;;;;;;;21.69;37.74;100617.69;5036000;28;20252;-69
2023/10/11 08:16:17;;;;;;;6.83;2.70;;;;;;;21.50;38.49;100627.03;5081647;28;20206;-69
2023/10/11 08:18:46;;;;;;;7.00;2.33;;;;;;;21.36;38.21;100633.75;5080940;28;20671;-69
2023/10/11 08:21:14;;;;;;;10.80;2.73;;;;;;;21.52;38.17;100633.00;5079345;28;20218;-70
2023/10/11 08:23:44;;;;;;;13.33;2.30;;;;;;;21.55;37.97;100629.03;5080378;28;20692;-69
2023/10/11 08:26:14;;;;;;;5.50;2.10;;;;;;;21.51;38.52;100620.56;5081785;28;20195;-70
2023/10/11 08:28:47;;;;;;;8.33;2.60;;;;;;;21.71;38.18;100622.88;5081190;28;20195;-69
2023/10/11 08:31:27;;;;;;;8.23;2.50;;;;;;;21.77;37.89;100620.06;5080883;28;20176;-69
2023/10/11 08:33:54;;;;;;;6.73;2.03;;;;;;;21.93;37.86;100619.25;5081876;28;20180;-69
2023/10/11 08:36:21;;;;;;;9.37;2.93;;;;;;;22.18;37.86;100621.63;5079763;28;20231;-70
2023/10/11 08:38:48;;;;;;;2.50;2.20;;;;;;;22.41;37.46;100622.28;5080352;28;20212;-69
2023/10/11 08:41:15;;;;;;;5.47;2.63;;;;;;;22.59;36.70;100630.22;5079001;28;20609;-69
2023/10/11 08:43:43;;;;;;;9.37;3.07;;;;;;;22.68;36.67;100627.91;5080701;28;20187;-71
2023/10/11 08:46:17;;;;;;;6.70;2.43;;;;;;;22.69;36.55;100635.78;5081488;28;20226;-67
2023/10/11 08:48:49;;;;;;;4.43;2.43;;;;;;;22.76;36.94;100630.19;5080446;28;20192;-69
2023/10/11 08:51:21;;;;;;;12.13;2.40;;;;;;;22.97;36.86;100632.97;5079259;28;20182;-69
2023/10/11 08:53:49;;;;;;;7.27;2.57;;;;;;;23.03;36.76;100621.13;5079789;28;20706;-69
2023/10/11 08:56:17;;;;;;;6.40;2.33;;;;;;;23.13;36.21;100626.69;5079628;28;20204;-72
2023/10/11 08:58:47;;;;;;;5.70;2.50;;;;;;;23.04;35.97;100625.50;5080621;28;20221;-71
2023/10/11 09:01:14;;;;;;;8.03;2.63;;;;;;;23.01;36.42;100627.88;5081329;28;20604;-70
2023/10/11 09:03:41;;;;;;;5.17;2.10;;;;;;;23.20;36.52;100624.63;5080167;28;20190;-72
2023/10/11 09:06:21;;;;;;;3.67;2.60;;;;;;;23.46;35.93;100626.63;5079315;28;20200;-72
2023/10/11 09:08:48;;;;;;;6.67;2.57;;;;;;;23.63;35.47;100627.38;5079987;28;20185;-73
2023/10/11 09:11:28;;;;;;;3.83;2.67;;;;;;;23.78;34.98;100630.28;5078970;28;20870;-73
2023/10/11 09:14:10;;;;;;;5.13;2.23;;;;;;;23.97;35.13;100628.88;5087420;28;20277;-71
2023/10/11 09:16:37;;;;;;;4.37;2.17;;;;;;;23.90;34.77;100635.56;5091329;28;20186;-71
2023/10/11 09:19:06;;;;;;;5.87;3.00;;;;;;;23.73;35.63;100635.63;5094652;28;20229;-68
2023/10/11 09:21:36;;;;;;;7.77;2.70;;;;;;;23.73;35.43;100637.53;5090664;28;20230;-69
2023/10/11 09:24:04;;;;;;;7.10;2.83;;;;;;;23.67;35.50;100643.97;5086004;28;20194;-69
2023/10/11 09:26:35;;;;;;;7.30;2.30;;;;;;;23.65;35.50;100635.28;5092612;28;20281;-68
2023/10/11 09:29:04;;;;;;;5.50;2.60;;;;;;;23.86;35.37;100637.13;5094239;28;20185;-70
2023/10/11 09:31:31;;;;;;;9.33;3.07;;;;;;;23.61;35.55;100640.34;5094438;28;20271;-70
2023/10/11 09:34:02;;;;;;;5.10;2.50;;;;;;;23.58;36.30;100630.03;5094468;28;20250;-70
2023/10/11 09:36:29;;;;;;;6.73;2.77;;;;;;;23.39;37.20;100622.44;5094673;28;20193;-69
2023/10/11 09:38:58;;;;;;;3.43;2.73;;;;;;;23.13;37.82;100629.41;5094516;28;20223;-70
2023/10/11 09:41:25;;;;;;;7.03;2.40;;;;;;;23.09;37.30;100625.56;5094081;28;20211;-70
2023/10/11 09:43:57;;;;;;;8.57;3.17;;;;;;;23.11;37.36;100617.19;5094314;28;20224;-72
2023/10/11 09:46:30;;;;;;;3.30;2.53;;;;;;;23.23;37.11;100621.44;5094112;28;20648;-68
2023/10/11 09:48:57;;;;;;;4.67;3.20;;;;;;;23.50;37.41;100624.22;5094137;28;20734;-70
2023/10/11 09:51:25;;;;;;;4.20;3.30;;;;;;;23.78;36.10;100619.41;5094183;28;20265;-70
2023/10/11 09:53:53;;;;;;;6.73;3.00;;;;;;;24.06;35.28;100607.53;5094130;28;20640;-68
2023/10/11 09:56:48;;;;;;;3.50;3.10;;;;;;;23.85;36.15;100603.72;5094015;28;20193;-68
2023/10/11 09:59:23;;;;;;;2.80;2.60;;;;;;;23.72;36.20;100614.16;5093841;28;20591;-71
2023/10/11 10:01:57;;;;;;;9.30;3.53;;;;;;;23.74;36.51;100610.16;5094330;28;20229;-71
2023/10/11 10:04:58;;;;;;;6.70;3.33;;;;;;;23.95;36.64;100601.19;5094084;28;20235;-71
2023/10/11 10:07:32;;;;;;;3.93;2.80;;;;;;;23.91;35.88;100597.34;5094305;28;20239;-71
2023/10/11 10:10:01;;;;;;;8.37;3.17;;;;;;;23.62;36.38;100595.91;5094375;28;20198;-70
2023/10/11 10:12:35;;;;;;;7.23;3.10;;;;;;;23.70;36.19;100584.59;5093809;28;20255;-71
2023/10/11 10:15:12;;;;;;;5.43;2.63;;;;;;;23.73;35.85;100588.69;5093651;28;20653;-71
2023/10/11 10:17:39;;;;;;;7.33;3.40;;;;;;;23.69;36.72;100580.22;5080220;28;20198;-71
2023/10/11 10:20:43;;;;;;;11.80;2.80;;;;;;;23.60;36.82;100573.63;5073116;28;20279;-70
2023/10/11 10:23:32;;;;;;;3.93;3.00;;;;;;;23.81;36.60;100577.38;5092532;28;20194;-71
2023/10/11 10:26:39;;;;;;;10.47;4.17;;;;;;;23.95;36.46;100565.88;5093508;28;20214;-71
2023/10/11 10:29:11;;;;;;;3.23;2.30;;;;;;;24.13;36.07;100568.22;5092301;28;20222;-71
2023/10/11 10:32:07;;;;;;;8.17;3.20;;;;;;;24.09;36.02;100571.72;5080880;28;20263;-70
2023/10/11 10:34:34;;;;;;;5.30;3.23;;;;;;;24.33;36.73;100562.13;5072480;28;20195;-70
2023/10/11 10:37:06;;;;;;;15.53;3.90;;;;;;;24.42;35.98;100569.53;5072398;28;20245;-71
2023/10/11 10:39:47;;;;;;;8.20;4.50;;;;;;;24.46;35.77;100562.50;5073893;28;20215;-70
2023/10/11 10:42:18;;;;;;;14.50;8.70;;;;;;;24.54;35.47;100559.31;5079312;28;20191;-71
2023/10/11 10:44:53;;;;;;;18.67;11.90;;;;;;;24.26;36.69;100556.91;5070876;28;20188;-71
2023/10/11 10:47:31;;;;;;;16.40;8.37;;;;;;;24.16;36.90;100551.41;5071330;28;20241;-68
2023/10/11 10:50:06;;;;;;;14.30;9.37;;;;;;;24.21;36.18;100547.91;5072842;28;20201;-70
2023/10/11 10:52:32;;;;;;;12.20;6.03;;;;;;;24.18;37.86;100540.28;5072850;28;20562;-71
2023/10/11 10:55:03;;;;;;;14.97;6.33;;;;;;;24.29;37.69;100529.25;5072595;28;20616;-71
2023/10/11 10:57:33;;;;;;;14.10;7.60;;;;;;;24.47;36.49;100523.38;5072842;28;20187;-72
2023/10/11 11:00:05;;;;;;;9.00;4.93;;;;;;;24.42;36.56;100530.69;5072319;28;20222;-74
2023/10/11 11:02:35;;;;;;;5.83;5.23;;;;;;;24.40;36.72;100530.97;5072501;28;20321;-72
2023/10/11 11:05:03;;;;;;;7.80;5.47;;;;;;;24.34;36.85;100525.75;5072690;28;20693;-71
2023/10/11 11:07:32;;;;;;;4.97;3.70;;;;;;;24.15;36.61;100522.63;5082509;28;20271;-68
2023/10/11 11:09:58;;;;;;;6.47;4.43;;;;;;;24.16;37.17;100512.56;5092998;28;20259;-67
2023/10/11 11:12:28;;;;;;;3.77;3.40;;;;;;;23.48;37.81;100520.59;5092710;28;20202;-68
2023/10/11 11:14:56;;;;;;;8.03;2.80;;;;;;;23.05;39.08;100518.69;5093029;28;20277;-67
2023/10/11 11:17:24;;;;;;;8.13;3.07;;;;;;;23.28;38.76;100510.31;5092767;28;20255;-68
2023/10/11 11:20:15;;;;;;;8.47;3.23;;;;;;;23.53;38.57;100513.31;5092444;28;20221;-69
2023/10/11 11:22:45;;;;;;;3.80;3.40;;;;;;;23.32;38.63;100507.94;5092167;28;20286;-69
2023/10/11 11:25:26;;;;;;;5.30;3.10;;;;;;;23.27;38.47;100500.56;5075423;28;20293;-68
2023/10/11 11:28:06;;;;;;;5.67;2.97;;;;;;;23.32;38.42;100497.88;5070929;28;20189;-68
2023/10/11 11:30:36;;;;;;;3.90;3.17;;;;;;;23.22;39.05;100495.06;5085760;28;20192;-66
2023/10/11 11:33:13;;;;;;;4.73;4.10;;;;;;;23.23;39.15;100496.72;5072634;28;20216;-67
2023/10/11 11:35:44;;;;;;;5.30;4.80;;;;;;;23.40;38.72;100502.84;5071318;28;20251;-67
2023/10/11 11:38:20;;;;;;;7.53;7.00;;;;;;;23.46;38.27;100501.03;5070850;28;20290;-67
2023/10/11 11:40:47;;;;;;;12.80;5.60;;;;;;;23.59;38.20;100482.44;5070421;28;20209;-67
2023/10/11 11:43:16;;;;;;;8.47;5.10;;;;;;;23.64;37.95;100485.22;5071128;28;20199;-67
2023/10/11 11:45:42;;;;;;;10.40;5.60;;;;;;;23.65;38.10;100481.41;5074512;28;20205;-67
2023/10/11 11:48:11;;;;;;;9.40;8.43;;;;;;;23.80;37.34;100484.28;5091446;28;20588;-69
2023/10/11 11:50:38;;;;;;;13.60;10.47;;;;;;;23.82;37.74;100484.84;5091611;28;20198;-65
2023/10/11 11:53:06;;;;;;;12.33;10.93;;;;;;;23.87;37.65;100482.19;5091377;28;20201;-66
2023/10/11 11:55:34;;;;;;;12.97;10.63;;;;;;;23.69;38.27;100473.59;5090990;28;20194;-66
2023/10/11 11:58:01;;;;;;;12.50;8.60;;;;;;;23.71;37.87;100483.13;5091581;28;20202;-72
2023/10/11 12:00:37;;;;;;;12.53;8.07;;;;;;;23.38;38.24;100472.47;5088670;28;20226;-73
2023/10/11 12:03:05;;;;;;;9.33;8.33;;;;;;;23.39;38.30;100484.97;5073389;28;20229;-73
2023/10/11 12:05:37;;;;;;;10.83;9.13;;;;;;;23.48;39.26;100471.78;5079265;28;20265;-73
2023/10/11 12:08:05;;;;;;;12.77;11.47;;;;;;;23.55;38.77;100462.34;5080634;28;20187;-74